Airfield :
LOGIN :

Register | Disclaimer

   EN    FR    IT 

 










Legend :    VFR   Marginal VFR   IFR   Intensive IFR   Very Intensive IFR
Visi :
Ceiling :
>= 8 km
>= 3000ft
5 to 8 km
1000 to 3000 ft
1500m to 5 km
500 to 1000 ft
800 to 1500m
200 to 500 ft
< 800m
< 200 ft
Symbols :   Thunderstorms  Fog  Heavy snow  Heavy precipitations  Wind > 20 kt
SIGMETs :     Misc.  Thunderstorms  Icing  Turbulence  Mountain Waves  Volcanic Ashes







- Airport Elevation : 3 ft
- IATA code : LWR


EHLW - Leuuwarden Air Base

CURRENT METAR :
  • 200925Z AUTO 19005KT 150V220 9999 DZ BKN016 OVC020 05/05 Q1015 WHT 19006KT 9999 FEW008 SCT015 BKN020

EXPIRED METARs :
  • 200910Z AUTO 19005KT 150V220 9999 -RA BKN024 OVC027 05/05 Q1015 WHT 19006KT 9999 FEW008 SCT015 BKN020
  • 200859Z AUTO 20005KT 150V230 9999 -RA FEW018 OVC027 05/05 Q1015 BLU 23008KT 9999 FEW012 SCT015 BKN040
  • 200845Z AUTO 20005KT 170V230 9999 +DZRA FEW009 OVC016 05/04 Q1015 WHT 23008KT 9999 FEW012 SCT015 BKN040
  • 200840Z AUTO 21005KT 9999 +DZ FEW009 SCT012 OVC016 05/04 Q1015 GRN 23008KT 9999 FEW012 SCT015 BKN040
  • 200825Z AUTO 22005KT 9999 -SHRA FEW017 SCT022 BKN027 05/04 Q1016 REDZ WHT 23008KT 9999 FEW012 SCT015 BKN040
  • 200807Z AUTO 22006KT 9999 +DZ FEW018 SCT022 OVC026 05/04 Q1016 WHT 23008KT 9999 FEW012 SCT015 BKN040
  • 200755Z AUTO 23006KT 9999 DZ FEW017 BKN038 BKN044 05/04 Q1016 BLU 23008KT 9999 FEW012 SCT015 BKN040
  • 200751Z AUTO 23006KT 9999 DZ FEW017 SCT040 BKN046 05/04 Q1016 BLU 23008KT 9999 FEW012 SCT015 BKN040
  • 200744Z AUTO 23007KT 9999 DZ SCT017 BKN041 BKN056 05/04 Q1016 WHT 23008KT 9999 FEW012 SCT015 BKN040
  • 200725Z AUTO 24008KT 9999 DZ FEW017 SCT023 BKN026 05/04 Q1016 WHT 23008KT 9999 SCT015 BKN020
  • 200718Z AUTO 24007KT 9999 DZ SCT017 SCT021 BKN038 05/04 Q1016 WHT
  • 200705Z AUTO 24006KT 9999 DZ SCT018 OVC037 05/04 Q1016 WHT
  • 200655Z AUTO 25007KT 9999 DZ OVC036 05/04 Q1016 BLU

TAF TAF EHLW
Valid from the 20 at 10:00 until the 20 at 22:00 UTC


200919Z 2010/2022 19006KT 9999 SCT015 OVC020
BECMG 2010/2012 3500 RADZ SCT006 BKN010 OVC020
PROB40
TEMPO 2011/2020 2000 DZ BKN002 OVC005
BECMG 2017/2019 28012KT
No reported NOTAMs for that airfield.



MET'MAP, your aeronautical weather chart ! - Copyright ORBIFLY December 2007 - Disclaimer

ORBIFLY MET'MAP TEAM :

Programming & Development : Alexandra Zaïnal
Concept & Development : Baudouin d'Aumeries
Co-Development & Prog : Marc-Olivier Méhu
Technical & hardware support : Manuel Goepfert

Contact : metmap@orbifly.com




SOURCES & CREDITS :

   NOAA